Time;durP1;ratioP1;P1;durP2;ratioP2;P2;SDS_P1;SDS_P2;PMS_P1;PMS_P2;Temp;Humidity;BMP_temperature;BMP_pressure;BME280_temperature;BME280_humidity;BME280_pressure;Samples;Min_cycle;Max_cycle;Signal;HPM_P1;HPM_P2
2021/07/22 00:01:07;;;;;;;10.50;8.57;;;17.10;74.90;;;;;;5116516;28;20427;-78
2021/07/22 00:03:34;;;;;;;12.20;9.63;;;17.20;74.40;;;;;;5116533;28;20423;-83
2021/07/22 00:06:02;;;;;;;11.33;8.37;;;17.10;74.70;;;;;;5114391;28;20788;-80
2021/07/22 00:08:30;;;;;;;10.83;9.30;;;17.10;74.90;;;;;;5114939;28;20452;-79
2021/07/22 00:10:57;;;;;;;10.80;9.10;;;17.00;75.70;;;;;;5108957;28;20469;-82
2021/07/22 00:13:24;;;;;;;11.30;8.47;;;17.00;76.10;;;;;;5098114;28;20478;-84
2021/07/22 00:15:51;;;;;;;9.60;8.23;;;16.90;76.00;;;;;;5110695;28;20475;-82
2021/07/22 00:18:18;;;;;;;10.50;8.87;;;16.90;77.10;;;;;;5102453;28;20458;-81
2021/07/22 00:20:45;;;;;;;14.20;8.90;;;16.90;78.10;;;;;;5102760;28;20568;-81
2021/07/22 00:23:13;;;;;;;9.13;8.27;;;16.80;79.40;;;;;;5101645;28;20479;-82
2021/07/22 00:25:42;;;;;;;10.37;9.03;;;16.80;79.90;;;;;;5101061;28;20451;-83
2021/07/22 00:28:09;;;;;;;13.20;9.43;;;16.80;79.80;;;;;;5101434;28;20456;-83
2021/07/22 00:30:36;;;;;;;11.83;8.90;;;16.70;81.20;;;;;;5101548;28;20497;-82
2021/07/22 00:33:03;;;;;;;10.57;9.00;;;16.70;82.40;;;;;;5100248;28;20541;-82
2021/07/22 00:35:30;;;;;;;13.63;8.90;;;16.60;82.30;;;;;;5100223;28;20955;-82
2021/07/22 00:37:57;;;;;;;14.50;10.17;;;16.50;82.20;;;;;;5103725;28;20483;-82
2021/07/22 00:40:24;;;;;;;11.40;8.80;;;16.50;82.20;;;;;;5101545;28;20933;-82
2021/07/22 00:42:59;;;;;;;15.17;9.40;;;16.50;82.20;;;;;;5100345;28;20443;-83
2021/07/22 00:45:27;;;;;;;11.40;9.60;;;16.50;83.10;;;;;;5101081;28;20849;-81
2021/07/22 00:47:55;;;;;;;12.50;9.33;;;16.50;83.80;;;;;;5101713;28;20567;-81
2021/07/22 00:50:22;;;;;;;12.13;9.67;;;16.50;85.00;;;;;;5101289;28;20959;-82
2021/07/22 00:52:49;;;;;;;14.70;9.87;;;16.40;85.50;;;;;;5101510;28;20511;-81
2021/07/22 00:55:18;;;;;;;10.50;9.33;;;16.40;86.80;;;;;;5102104;28;20967;-81
2021/07/22 00:57:45;;;;;;;12.00;9.23;;;16.30;88.10;;;;;;5112615;28;20447;-82
2021/07/22 01:00:14;;;;;;;12.13;9.50;;;16.30;89.80;;;;;;5104825;28;20463;-82
2021/07/22 01:02:41;;;;;;;13.40;8.70;;;16.20;90.10;;;;;;5115938;28;20958;-80
2021/07/22 01:05:09;;;;;;;9.83;8.83;;;16.10;90.10;;;;;;5118220;28;20456;-80
2021/07/22 01:07:37;;;;;;;16.33;9.77;;;16.10;90.80;;;;;;5117933;28;20469;-81
2021/07/22 01:10:04;;;;;;;12.70;9.87;;;16.00;90.80;;;;;;5117600;28;20414;-80
2021/07/22 01:12:32;;;;;;;12.43;9.70;;;16.00;91.20;;;;;;5106567;28;20991;-82
2021/07/22 01:14:59;;;;;;;9.88;8.85;;;16.00;91.30;;;;;;5104748;28;20471;-81
2021/07/22 01:17:37;;;;;;;9.73;8.63;;;16.00;91.30;;;;;;5109719;28;20239;-78
2021/07/22 01:20:09;;;;;;;12.83;9.27;;;15.90;91.40;;;;;;5113132;28;20454;-81
2021/07/22 01:22:36;;;;;;;14.43;8.90;;;15.90;91.50;;;;;;5111098;28;20486;-78
2021/07/22 01:25:04;;;;;;;9.10;8.10;;;15.90;91.60;;;;;;5117989;28;20439;-79
2021/07/22 01:27:31;;;;;;;13.77;9.53;;;15.90;91.50;;;;;;5118319;28;20446;-80
2021/07/22 01:29:57;;;;;;;8.93;8.00;;;15.90;91.20;;;;;;5117803;28;20468;-81
2021/07/22 01:32:24;;;;;;;11.30;9.50;;;15.80;91.00;;;;;;5114564;28;20495;-78
2021/07/22 01:34:51;;;;;;;15.83;9.37;;;15.80;91.10;;;;;;5117200;28;20438;-81
2021/07/22 01:37:19;;;;;;;13.43;9.13;;;15.80;91.40;;;;;;5118171;28;20425;-81
2021/07/22 01:39:46;;;;;;;11.17;8.80;;;15.70;91.80;;;;;;5117985;28;20447;-81
2021/07/22 01:42:13;;;;;;;13.63;9.02;;;15.60;92.00;;;;;;5117704;28;20463;-81
2021/07/22 01:44:40;;;;;;;10.25;8.63;;;15.60;92.30;;;;;;5106384;28;20237;-83
2021/07/22 01:47:07;;;;;;;10.80;9.57;;;15.60;92.30;;;;;;5098233;28;20206;-82
2021/07/22 01:49:34;;;;;;;11.03;9.37;;;15.60;92.40;;;;;;5099597;28;20490;-83
2021/07/22 01:52:04;;;;;;;12.05;9.57;;;15.60;92.50;;;;;;5098715;28;20586;-83
2021/07/22 01:54:33;;;;;;;19.25;9.57;;;15.60;92.60;;;;;;5098917;28;20661;-84
2021/07/22 01:57:01;;;;;;;10.57;9.10;;;15.60;92.90;;;;;;5098791;28;20228;-84
2021/07/22 01:59:35;;;;;;;10.63;8.73;;;15.60;93.00;;;;;;5099652;28;20487;-83
2021/07/22 02:02:02;;;;;;;12.23;8.87;;;15.50;93.20;;;;;;5100332;28;20448;-84
2021/07/22 02:04:29;;;;;;;15.05;9.70;;;15.50;93.50;;;;;;5099673;28;20430;-83
2021/07/22 02:06:56;;;;;;;14.97;9.03;;;15.60;93.60;;;;;;5098805;28;20277;-83
2021/07/22 02:09:23;;;;;;;12.45;9.43;;;15.60;93.60;;;;;;5097890;28;20485;-83
2021/07/22 02:11:52;;;;;;;11.83;9.47;;;15.70;93.00;;;;;;5096874;28;20225;-82
2021/07/22 02:14:19;;;;;;;10.57;8.87;;;15.80;92.90;;;;;;5096807;28;20895;-84
2021/07/22 02:16:46;;;;;;;11.20;8.73;;;15.80;92.30;;;;;;5097020;28;20461;-82
2021/07/22 02:19:13;;;;;;;10.17;9.00;;;15.80;91.90;;;;;;5096628;28;20534;-84
2021/07/22 02:21:41;;;;;;;15.20;9.47;;;15.70;91.80;;;;;;5105806;28;20495;-82
2021/07/22 02:24:09;;;;;;;9.60;8.60;;;15.70;91.90;;;;;;5098039;28;20547;-81
2021/07/22 02:26:37;;;;;;;9.47;8.33;;;15.70;92.20;;;;;;5103868;28;20471;-83
2021/07/22 02:29:06;;;;;;;14.07;9.07;;;15.70;92.30;;;;;;5099726;28;20430;-82
2021/07/22 02:31:34;;;;;;;10.83;9.43;;;15.60;92.50;;;;;;5098983;28;20473;-82
2021/07/22 02:34:01;;;;;;;12.15;9.35;;;15.60;92.70;;;;;;5097314;28;20446;-83
2021/07/22 02:36:27;;;;;;;13.20;9.10;;;15.50;93.00;;;;;;5097445;28;20228;-83
2021/07/22 02:38:54;;;;;;;10.65;8.35;;;15.50;93.10;;;;;;5097591;28;21006;-83
2021/07/22 02:41:22;;;;;;;11.93;8.83;;;15.50;93.00;;;;;;5099175;28;20252;-83
2021/07/22 02:43:48;;;;;;;10.00;8.90;;;15.50;92.80;;;;;;5100217;28;20488;-83
2021/07/22 02:46:17;;;;;;;11.47;8.77;;;15.50;92.80;;;;;;5105491;28;20531;-83
2021/07/22 02:48:43;;;;;;;10.65;9.45;;;15.50;92.80;;;;;;5106927;28;20470;-82
2021/07/22 02:51:11;;;;;;;12.25;9.27;;;15.50;92.60;;;;;;5099073;28;20267;-82
2021/07/22 02:53:38;;;;;;;12.37;9.20;;;15.50;92.30;;;;;;5099038;28;20221;-83
2021/07/22 02:56:05;;;;;;;9.80;8.25;;;15.60;91.80;;;;;;5100346;28;20458;-82
2021/07/22 02:58:32;;;;;;;11.90;9.50;;;15.60;91.60;;;;;;5102713;28;20240;-81
2021/07/22 03:00:59;;;;;;;9.90;8.90;;;15.60;91.50;;;;;;5103792;28;20259;-81
2021/07/22 03:03:28;;;;;;;11.07;8.87;;;15.60;91.70;;;;;;5105765;28;20229;-82
2021/07/22 03:05:54;;;;;;;12.10;8.80;;;15.50;91.80;;;;;;5114583;28;20471;-81
2021/07/22 03:08:22;;;;;;;10.93;9.00;;;15.60;91.70;;;;;;5117860;28;20437;-82
2021/07/22 03:10:49;;;;;;;13.88;9.20;;;15.50;91.80;;;;;;5117512;28;20276;-82
2021/07/22 03:13:16;;;;;;;10.70;8.90;;;15.50;92.10;;;;;;5118049;28;20217;-81
2021/07/22 03:15:43;;;;;;;10.43;9.30;;;15.50;92.10;;;;;;5117873;28;20261;-82
2021/07/22 03:18:10;;;;;;;10.20;9.10;;;15.50;92.50;;;;;;5119651;28;20204;-80
2021/07/22 03:20:38;;;;;;;10.95;9.00;;;15.50;92.30;;;;;;5119199;28;20257;-81
2021/07/22 03:23:06;;;;;;;12.23;9.07;;;15.50;92.20;;;;;;5114625;28;20266;-82
2021/07/22 03:25:33;;;;;;;12.23;8.63;;;15.50;91.90;;;;;;5115045;28;20270;-82
2021/07/22 03:28:02;;;;;;;10.98;9.18;;;15.50;91.70;;;;;;5115547;28;20205;-82
2021/07/22 03:30:29;;;;;;;12.60;9.90;;;15.50;91.70;;;;;;5108388;28;20229;-83
2021/07/22 03:32:55;;;;;;;10.65;8.52;;;15.40;91.60;;;;;;5113345;28;20229;-82
2021/07/22 03:35:22;;;;;;;12.07;9.45;;;15.40;91.80;;;;;;5118968;28;20209;-81
2021/07/22 03:37:51;;;;;;;11.73;8.63;;;15.40;92.00;;;;;;5118405;28;20185;-81
2021/07/22 03:40:18;;;;;;;12.50;8.98;;;15.40;92.00;;;;;;5119918;28;20189;-79
2021/07/22 03:42:44;;;;;;;12.93;9.25;;;15.40;92.30;;;;;;5119668;28;20185;-78
2021/07/22 03:45:13;;;;;;;10.70;9.05;;;15.40;92.40;;;;;;5119993;28;20184;-80
2021/07/22 03:47:40;;;;;;;10.40;9.30;;;15.40;92.20;;;;;;5108459;28;20268;-82
2021/07/22 03:50:08;;;;;;;15.67;9.37;;;15.40;92.10;;;;;;5104102;28;20240;-83
2021/07/22 03:52:34;;;;;;;9.82;8.52;;;15.40;91.90;;;;;;5102356;28;20581;-82
2021/07/22 03:55:03;;;;;;;10.77;8.95;;;15.50;91.70;;;;;;5101877;28;20281;-83
2021/07/22 03:57:30;;;;;;;12.13;8.95;;;15.50;91.60;;;;;;5103722;28;20248;-82
2021/07/22 03:59:57;;;;;;;10.02;8.30;;;15.50;91.60;;;;;;5102953;28;20209;-82
2021/07/22 04:02:23;;;;;;;9.90;8.30;;;15.50;91.00;;;;;;5104289;28;20228;-83
2021/07/22 04:04:50;;;;;;;13.52;9.13;;;15.50;90.80;;;;;;5109037;28;20428;-83
2021/07/22 04:07:17;;;;;;;10.80;8.85;;;15.50;90.60;;;;;;5108237;28;20688;-83
2021/07/22 04:09:45;;;;;;;9.77;8.38;;;15.50;90.70;;;;;;5103597;28;20212;-81
2021/07/22 04:12:17;;;;;;;14.60;8.75;;;15.60;90.60;;;;;;5102476;28;20232;-83
2021/07/22 04:14:44;;;;;;;10.05;8.90;;;15.50;90.50;;;;;;5113778;28;20257;-82
2021/07/22 04:17:14;;;;;;;11.45;8.63;;;15.50;90.60;;;;;;5119604;28;20213;-83
2021/07/22 04:19:41;;;;;;;9.63;7.72;;;15.50;90.40;;;;;;5119652;28;20186;-83
2021/07/22 04:22:08;;;;;;;9.40;8.00;;;15.60;90.20;;;;;;5119445;28;20197;-83
2021/07/22 04:24:36;;;;;;;14.50;8.77;;;15.60;89.80;;;;;;5119245;28;20193;-83
2021/07/22 04:27:03;;;;;;;10.45;8.45;;;15.60;89.80;;;;;;5118880;28;20245;-83
2021/07/22 04:29:31;;;;;;;8.70;7.65;;;15.60;89.80;;;;;;5118603;28;20196;-84
2021/07/22 04:31:58;;;;;;;9.43;7.90;;;15.70;88.80;;;;;;5108455;28;20229;-83
2021/07/22 04:34:25;;;;;;;10.73;7.85;;;15.80;87.50;;;;;;5103629;28;20245;-82
2021/07/22 04:36:52;;;;;;;8.80;7.90;;;15.90;86.80;;;;;;5104274;28;20244;-83
2021/07/22 04:39:19;;;;;;;9.47;7.73;;;16.10;85.50;;;;;;5104400;28;20231;-83
2021/07/22 04:41:46;;;;;;;11.32;8.13;;;16.20;82.70;;;;;;5103381;28;20483;-82
2021/07/22 04:44:13;;;;;;;9.20;8.18;;;16.20;81.90;;;;;;5102017;28;20288;-83
2021/07/22 04:46:41;;;;;;;14.05;7.75;;;16.30;82.00;;;;;;5102697;28;20237;-83
2021/07/22 04:49:08;;;;;;;9.97;8.73;;;16.50;80.50;;;;;;5102819;28;20244;-81
2021/07/22 04:51:34;;;;;;;9.87;7.87;;;16.70;77.70;;;;;;5102337;28;20456;-81
2021/07/22 04:54:01;;;;;;;9.40;8.10;;;16.80;76.20;;;;;;5102378;28;20524;-82
2021/07/22 04:56:28;;;;;;;9.00;8.03;;;16.90;74.50;;;;;;5103777;28;20511;-81
2021/07/22 04:58:55;;;;;;;10.13;7.20;;;16.90;73.90;;;;;;5108021;28;20451;-83
2021/07/22 05:01:22;;;;;;;8.00;7.30;;;16.90;73.90;;;;;;5115444;28;20503;-82
2021/07/22 05:03:50;;;;;;;7.80;6.97;;;17.20;74.20;;;;;;5115860;28;20470;-83
2021/07/22 05:06:17;;;;;;;8.77;6.70;;;17.60;69.20;;;;;;5117659;28;20459;-83
2021/07/22 05:08:44;;;;;;;9.40;7.23;;;18.10;66.00;;;;;;5107387;28;20454;-82
2021/07/22 05:11:11;;;;;;;7.93;7.13;;;18.50;63.90;;;;;;5106417;28;20527;-82
2021/07/22 05:13:40;;;;;;;7.43;6.63;;;19.00;60.90;;;;;;5101520;28;20548;-81
2021/07/22 05:16:07;;;;;;;9.13;7.37;;;19.70;58.30;;;;;;5104386;28;20456;-81
2021/07/22 05:18:34;;;;;;;9.63;6.80;;;20.00;55.60;;;;;;5102370;28;20461;-79
2021/07/22 05:21:05;;;;;;;7.73;6.93;;;20.10;53.90;;;;;;5106566;28;20475;-80
2021/07/22 05:23:33;;;;;;;6.93;6.23;;;20.20;54.00;;;;;;5116791;28;20455;-78
2021/07/22 05:26:03;;;;;;;7.67;6.77;;;20.50;51.30;;;;;;5117619;28;20469;-78
2021/07/22 05:28:30;;;;;;;7.90;7.10;;;20.30;52.50;;;;;;5116746;28;20447;-81
2021/07/22 05:30:57;;;;;;;8.10;7.40;;;19.50;54.90;;;;;;5106764;28;20459;-82
2021/07/22 05:33:24;;;;;;;7.27;6.50;;;19.50;56.30;;;;;;5105620;28;20542;-81
2021/07/22 05:35:51;;;;;;;7.70;6.93;;;19.60;55.50;;;;;;5110309;28;20468;-78
2021/07/22 05:38:20;;;;;;;7.77;6.40;;;19.50;56.50;;;;;;5116634;28;20450;-80
2021/07/22 05:40:46;;;;;;;7.63;6.83;;;19.30;56.60;;;;;;5116401;28;20467;-78
2021/07/22 05:43:13;;;;;;;8.67;7.27;;;19.30;57.90;;;;;;5115548;28;20455;-80
2021/07/22 05:45:40;;;;;;;7.33;6.63;;;19.60;56.70;;;;;;5112103;28;20439;-80
2021/07/22 05:48:07;;;;;;;7.97;6.50;;;20.10;54.90;;;;;;5106207;28;20482;-81
2021/07/22 05:50:34;;;;;;;12.10;6.90;;;20.80;51.70;;;;;;5109005;28;20453;-81
2021/07/22 05:53:01;;;;;;;8.20;7.20;;;21.20;50.00;;;;;;5112410;28;20475;-79
2021/07/22 05:55:30;;;;;;;8.10;6.50;;;20.80;49.60;;;;;;5113992;28;20457;-78
2021/07/22 05:57:57;;;;;;;8.17;7.20;;;21.20;50.00;;;;;;5112755;28;20460;-81
2021/07/22 06:00:24;;;;;;;11.87;6.50;;;21.30;50.10;;;;;;5115383;28;20421;-79
2021/07/22 06:02:51;;;;;;;7.57;6.63;;;21.20;49.00;;;;;;5114214;28;20444;-79
2021/07/22 06:05:21;;;;;;;9.67;6.90;;;21.30;48.40;;;;;;5113305;28;20406;-79
2021/07/22 06:07:48;;;;;;;8.40;6.40;;;21.40;47.00;;;;;;5103981;28;20430;-80
2021/07/22 06:10:16;;;;;;;7.33;6.53;;;21.10;48.20;;;;;;5101752;28;20466;-80
2021/07/22 06:12:44;;;;;;;8.90;6.40;;;21.50;47.20;;;;;;5102246;28;20485;-80
2021/07/22 06:15:11;;;;;;;7.07;6.40;;;21.20;47.30;;;;;;5105415;28;20437;-79
2021/07/22 06:17:39;;;;;;;8.87;7.00;;;21.20;47.30;;;;;;5112479;28;20439;-79
2021/07/22 06:20:07;;;;;;;7.90;5.97;;;20.50;49.30;;;;;;5113215;28;20493;-82
2021/07/22 06:22:36;;;;;;;8.30;6.87;;;20.90;49.40;;;;;;5113095;28;20446;-80
2021/07/22 06:25:04;;;;;;;8.80;6.47;;;20.90;48.10;;;;;;5112826;28;20423;-80
2021/07/22 06:27:31;;;;;;;7.10;5.93;;;21.50;45.90;;;;;;5112514;28;20439;-80
2021/07/22 06:30:01;;;;;;;7.60;6.50;;;21.90;46.20;;;;;;5111798;28;20659;-80
2021/07/22 06:32:28;;;;;;;8.40;6.17;;;22.00;45.00;;;;;;5114731;28;20474;-80
2021/07/22 06:34:56;;;;;;;7.20;6.07;;;21.30;46.80;;;;;;5115647;28;20501;-80
2021/07/22 06:37:23;;;;;;;8.63;6.97;;;20.90;47.90;;;;;;5115801;28;20433;-82
2021/07/22 06:39:49;;;;;;;7.37;6.63;;;20.20;49.90;;;;;;5108079;28;20490;-81
2021/07/22 06:42:16;;;;;;;8.97;6.30;;;20.40;50.30;;;;;;5103262;28;20475;-81
2021/07/22 06:44:43;;;;;;;10.27;6.70;;;21.20;48.30;;;;;;5103264;28;20467;-81
2021/07/22 06:47:12;;;;;;;6.50;5.90;;;21.50;46.70;;;;;;5104123;28;20498;-80
2021/07/22 06:49:38;;;;;;;9.30;7.37;;;21.10;48.30;;;;;;5104345;28;20431;-80
2021/07/22 06:52:06;;;;;;;8.67;7.00;;;20.70;49.50;;;;;;5103047;28;20491;-81
2021/07/22 06:54:33;;;;;;;8.67;6.97;;;20.80;49.60;;;;;;5110912;28;20501;-80
2021/07/22 06:57:00;;;;;;;8.80;7.00;;;20.20;52.10;;;;;;5114898;28;20439;-82
2021/07/22 06:59:27;;;;;;;8.97;6.50;;;20.20;52.20;;;;;;5114828;28;20447;-79
2021/07/22 07:01:54;;;;;;;8.67;7.00;;;20.00;52.40;;;;;;5109416;28;20468;-82
2021/07/22 07:04:22;;;;;;;7.60;6.80;;;20.20;51.30;;;;;;5109111;28;20914;-80
2021/07/22 07:06:49;;;;;;;7.90;6.40;;;19.80;54.30;;;;;;5115067;28;20665;-82
2021/07/22 07:09:16;;;;;;;13.03;7.60;;;19.80;53.30;;;;;;5118080;28;20418;-79
2021/07/22 07:11:43;;;;;;;11.27;7.40;;;19.90;52.90;;;;;;5115046;28;20465;-81
2021/07/22 07:14:10;;;;;;;13.10;7.30;;;19.40;54.90;;;;;;5110466;28;20518;-84
2021/07/22 07:16:39;;;;;;;10.83;8.00;;;19.30;55.40;;;;;;5105895;28;20455;-80
2021/07/22 07:19:07;;;;;;;16.30;7.27;;;19.50;54.90;;;;;;5102571;28;20489;-82
2021/07/22 07:21:37;;;;;;;10.40;7.23;;;19.50;55.50;;;;;;5108650;28;20504;-82
2021/07/22 07:24:04;;;;;;;7.80;7.00;;;19.80;53.80;;;;;;5109822;28;20452;-80
2021/07/22 07:26:31;;;;;;;12.33;7.73;;;19.90;54.70;;;;;;5110346;28;20511;-83
2021/07/22 07:28:59;;;;;;;11.23;8.10;;;19.80;54.30;;;;;;5116418;28;20455;-81
2021/07/22 07:31:26;;;;;;;12.33;8.03;;;19.80;54.70;;;;;;5117067;28;20456;-79
2021/07/22 07:33:53;;;;;;;8.83;7.27;;;19.90;54.30;;;;;;5116604;28;20503;-81
2021/07/22 07:36:20;;;;;;;9.40;7.73;;;20.20;53.40;;;;;;5117719;28;20459;-78
2021/07/22 07:38:48;;;;;;;8.40;7.60;;;20.20;53.40;;;;;;5118557;28;20504;-78
2021/07/22 07:41:15;;;;;;;8.13;6.20;;;20.10;53.50;;;;;;5117968;28;20474;-79
2021/07/22 07:43:42;;;;;;;10.03;7.70;;;20.40;52.60;;;;;;5117671;28;20409;-77
2021/07/22 07:46:10;;;;;;;10.80;7.80;;;20.50;51.90;;;;;;5118405;28;20467;-80
2021/07/22 07:48:37;;;;;;;8.07;6.60;;;20.70;51.60;;;;;;5117519;28;20462;-77
2021/07/22 07:51:05;;;;;;;9.60;7.10;;;20.90;51.40;;;;;;5117027;28;20466;-80
2021/07/22 07:53:32;;;;;;;8.27;7.00;;;21.30;50.10;;;;;;5117514;28;20524;-79
2021/07/22 07:56:01;;;;;;;9.27;7.07;;;21.50;50.20;;;;;;5118718;28;20447;-81
2021/07/22 07:58:28;;;;;;;17.53;6.80;;;21.60;49.40;;;;;;5118506;28;20444;-79
2021/07/22 08:00:55;;;;;;;12.47;7.50;;;21.80;49.60;;;;;;5115720;28;20606;-81
2021/07/22 08:03:24;;;;;;;7.40;6.50;;;21.20;50.00;;;;;;5116701;28;20452;-79
2021/07/22 08:05:52;;;;;;;9.70;6.83;;;20.90;51.20;;;;;;5109851;28;20456;-81
2021/07/22 08:08:19;;;;;;;9.30;7.40;;;20.80;51.60;;;;;;5104885;28;20526;-80
2021/07/22 08:10:46;;;;;;;8.40;7.50;;;20.80;51.70;;;;;;5105921;28;20585;-81
2021/07/22 08:13:15;;;;;;;7.00;6.30;;;21.10;51.70;;;;;;5108077;28;20523;-82
2021/07/22 08:15:43;;;;;;;10.30;6.87;;;21.30;50.10;;;;;;5112759;28;20463;-78
2021/07/22 08:18:10;;;;;;;10.03;7.43;;;21.40;50.20;;;;;;5110445;28;20554;-82
2021/07/22 08:20:37;;;;;;;9.80;7.30;;;21.30;50.10;;;;;;5102411;28;20479;-81
2021/07/22 08:23:04;;;;;;;11.23;6.60;;;21.30;50.10;;;;;;5110098;28;20504;-81
2021/07/22 08:25:31;;;;;;;9.63;7.70;;;21.60;51.10;;;;;;5099177;28;20482;-79
2021/07/22 08:27:58;;;;;;;7.83;7.00;;;21.50;48.80;;;;;;5098662;28;20547;-79
2021/07/22 08:30:27;;;;;;;10.70;7.63;;;21.50;50.30;;;;;;5096091;28;20467;-80
2021/07/22 08:32:54;;;;;;;8.00;6.33;;;21.60;49.50;;;;;;5095762;28;20452;-79
2021/07/22 08:35:20;;;;;;;7.53;6.70;;;21.70;46.40;;;;;;5096325;28;20516;-79
2021/07/22 08:37:47;;;;;;;11.20;7.70;;;21.90;46.40;;;;;;5097054;28;20589;-79
2021/07/22 08:40:17;;;;;;;8.07;7.20;;;22.00;45.30;;;;;;5097159;28;20536;-79
2021/07/22 08:42:47;;;;;;;7.43;6.40;;;22.10;45.50;;;;;;5115404;28;20422;-82
2021/07/22 08:45:16;;;;;;;7.90;7.10;;;22.20;45.80;;;;;;5099762;28;20760;-79
2021/07/22 08:47:45;;;;;;;15.07;7.37;;;22.50;46.40;;;;;;5105983;28;20459;-84
2021/07/22 08:50:13;;;;;;;14.13;7.17;;;22.50;46.10;;;;;;5104928;28;20480;-79
2021/07/22 08:52:41;;;;;;;12.00;7.00;;;22.60;46.30;;;;;;5096175;28;20456;-79
2021/07/22 08:55:09;;;;;;;8.23;7.00;;;22.70;46.80;;;;;;5098882;28;20575;-79
2021/07/22 08:57:37;;;;;;;10.00;7.67;;;22.50;46.70;;;;;;5098621;28;20523;-79
2021/07/22 09:00:06;;;;;;;8.27;7.33;;;22.70;45.90;;;;;;5101051;28;20449;-81
2021/07/22 09:02:34;;;;;;;12.07;7.87;;;23.10;45.60;;;;;;5107993;28;21053;-82
2021/07/22 09:05:04;;;;;;;8.90;6.83;;;23.20;44.30;;;;;;5105103;28;20785;-78
2021/07/22 09:07:32;;;;;;;8.00;6.70;;;23.40;43.70;;;;;;5095828;28;20478;-79
2021/07/22 09:10:12;;;;;;;8.43;7.17;;;23.40;43.30;;;;;;5099027;28;20493;-79
2021/07/22 09:12:41;;;;;;;10.13;7.43;;;23.50;43.30;;;;;;5097767;28;20647;-79
2021/07/22 09:15:10;;;;;;;8.30;7.00;;;23.60;42.20;;;;;;5096269;28;20995;-78
2021/07/22 09:17:36;;;;;;;7.90;7.00;;;23.70;42.30;;;;;;5095535;28;20553;-79
2021/07/22 09:20:10;;;;;;;7.87;7.17;;;23.50;42.10;;;;;;5095010;28;20451;-79
2021/07/22 09:22:40;;;;;;;9.07;6.40;;;23.50;42.10;;;;;;5094283;28;20765;-78
2021/07/22 09:25:07;;;;;;;8.13;6.87;;;23.80;42.40;;;;;;5096643;28;20433;-79
2021/07/22 09:27:40;;;;;;;9.67;7.83;;;23.60;42.20;;;;;;5096989;28;20856;-79
2021/07/22 09:30:10;;;;;;;16.83;6.77;;;23.70;42.30;;;;;;5101089;28;20455;-80
2021/07/22 09:32:39;;;;;;;12.40;7.60;;;24.00;41.60;;;;;;5094402;28;20430;-80
2021/07/22 09:35:12;;;;;;;11.17;7.17;;;24.30;40.90;;;;;;5093890;28;20585;-78
2021/07/22 09:37:40;;;;;;;9.63;7.27;;;24.20;40.20;;;;;;5095183;28;20633;-78
2021/07/22 09:40:12;;;;;;;9.07;6.40;;;24.20;39.60;;;;;;5101253;28;20498;-79
2021/07/22 09:42:46;;;;;;;8.20;7.10;;;24.10;39.70;;;;;;5100908;28;20817;-82
2021/07/22 09:45:17;;;;;;;9.90;6.37;;;24.30;38.30;;;;;;5101206;28;20454;-78
2021/07/22 09:47:45;;;;;;;8.43;7.30;;;24.60;38.50;;;;;;5097938;28;21028;-79
2021/07/22 09:50:15;;;;;;;8.00;6.70;;;24.70;38.00;;;;;;5094602;28;20489;-79
2021/07/22 09:52:43;;;;;;;8.10;7.40;;;24.50;37.60;;;;;;5098154;28;20543;-78
2021/07/22 09:55:27;;;;;;;12.23;6.47;;;24.10;39.40;;;;;;5101302;28;20484;-80
2021/07/22 09:57:56;;;;;;;8.03;7.00;;;24.10;37.90;;;;;;5099476;28;20486;-78
2021/07/22 10:00:24;;;;;;;6.80;6.10;;;24.20;38.90;;;;;;5104190;28;20482;-78
2021/07/22 10:02:52;;;;;;;7.73;6.47;;;24.60;37.30;;;;;;5099827;28;20542;-79
2021/07/22 10:05:24;;;;;;;8.93;5.97;;;24.90;35.00;;;;;;5099721;28;20515;-79
2021/07/22 10:07:53;;;;;;;7.30;6.60;;;25.20;36.50;;;;;;5104111;28;20408;-79
2021/07/22 10:10:21;;;;;;;7.40;6.20;;;25.50;35.90;;;;;;5100590;28;20451;-80
2021/07/22 10:12:54;;;;;;;7.13;6.40;;;25.50;33.50;;;;;;5100344;28;20549;-78
2021/07/22 10:15:22;;;;;;;7.73;6.13;;;25.70;33.60;;;;;;5101587;28;20478;-78
2021/07/22 10:17:51;;;;;;;7.93;5.53;;;25.40;33.40;;;;;;5100198;28;20451;-78
2021/07/22 10:20:19;;;;;;;7.20;6.10;;;25.30;33.40;;;;;;5097406;28;20509;-78
2021/07/22 10:22:47;;;;;;;7.30;6.17;;;25.50;31.80;;;;;;5102641;28;20427;-80
2021/07/22 10:25:16;;;;;;;6.60;6.00;;;25.80;31.50;;;;;;5099758;28;20472;-80
2021/07/22 10:27:44;;;;;;;8.07;6.10;;;25.90;31.80;;;;;;5102029;28;20514;-79
2021/07/22 10:30:13;;;;;;;6.57;5.83;;;25.80;29.30;;;;;;5105097;28;20491;-80
2021/07/22 10:32:43;;;;;;;6.63;6.03;;;26.00;29.50;;;;;;5100427;28;21003;-81
2021/07/22 10:35:11;;;;;;;7.47;5.60;;;25.80;29.90;;;;;;5101990;28;20857;-79
2021/07/22 10:37:38;;;;;;;7.10;5.50;;;25.50;31.10;;;;;;5110712;28;20450;-80
2021/07/22 10:40:11;;;;;;;7.80;5.63;;;25.70;32.40;;;;;;5108802;28;20543;-79
2021/07/22 10:42:46;;;;;;;7.30;5.83;;;25.90;31.40;;;;;;5100595;28;21102;-78
2021/07/22 10:45:30;;;;;;;7.30;5.33;;;25.80;31.30;;;;;;5111146;28;20455;-82
2021/07/22 10:48:06;;;;;;;7.03;6.43;;;25.60;30.10;;;;;;5119296;28;20487;-81
2021/07/22 10:51:02;;;;;;;6.03;5.43;;;25.60;30.90;;;;;;5119878;28;20444;-83
2021/07/22 10:53:40;;;;;;;6.07;5.53;;;25.50;30.00;;;;;;5113322;28;20477;-80
2021/07/22 10:56:10;;;;;;;6.80;5.77;;;25.50;29.50;;;;;;5104097;28;20447;-79
2021/07/22 10:58:59;;;;;;;5.97;5.40;;;25.80;29.60;;;;;;5102382;28;20453;-79
2021/07/22 11:02:00;;;;;;;6.17;5.57;;;25.60;29.90;;;;;;5092769;28;20509;-78
2021/07/22 11:04:45;;;;;;;6.00;5.50;;;25.80;30.10;;;;;;5096963;28;20513;-79
2021/07/22 11:07:24;;;;;;;6.10;5.60;;;25.90;27.40;;;;;;5101337;28;20555;-81
2021/07/22 11:10:01;;;;;;;6.33;5.73;;;26.20;29.40;;;;;;5102113;28;20979;-79
2021/07/22 11:12:45;;;;;;;7.00;6.30;;;26.50;29.30;;;;;;5104531;28;20557;-80
2021/07/22 11:15:34;;;;;;;7.10;6.00;;;26.60;28.00;;;;;;5100582;28;20510;-80
2021/07/22 11:18:01;;;;;;;6.33;5.80;;;26.80;27.80;;;;;;5099922;28;20774;-80
2021/07/22 11:20:33;;;;;;;6.70;6.10;;;26.80;29.00;;;;;;5098472;28;20469;-79
2021/07/22 11:23:11;;;;;;;6.50;6.00;;;26.60;29.30;;;;;;5099321;28;20440;-80
2021/07/22 11:26:04;;;;;;;7.80;7.00;;;26.70;28.30;;;;;;5101691;28;20394;-79
2021/07/22 11:28:33;;;;;;;8.47;6.57;;;26.60;28.60;;;;;;5108973;28;20444;-79
2021/07/22 11:31:04;;;;;;;8.33;6.50;;;26.10;29.10;;;;;;5097290;28;20455;-78
2021/07/22 11:33:33;;;;;;;7.30;6.70;;;26.30;29.90;;;;;;5102049;28;20457;-79
2021/07/22 11:36:06;;;;;;;8.50;7.30;;;26.60;30.60;;;;;;5098478;28;20520;-78
2021/07/22 11:38:34;;;;;;;8.00;6.80;;;26.50;30.50;;;;;;5116555;28;20450;-79
2021/07/22 11:41:01;;;;;;;8.03;5.97;;;26.60;29.70;;;;;;5112215;28;20445;-78
2021/07/22 11:43:38;;;;;;;8.20;7.07;;;26.90;29.30;;;;;;5096474;28;20448;-79
2021/07/22 11:46:10;;;;;;;11.50;7.13;;;26.90;29.20;;;;;;5097053;28;20421;-80
2021/07/22 11:48:37;;;;;;;8.70;7.20;;;27.00;28.80;;;;;;5096939;28;20519;-80
2021/07/22 11:51:07;;;;;;;7.03;6.27;;;27.00;28.90;;;;;;5099815;28;20565;-81
2021/07/22 11:53:34;;;;;;;8.63;6.73;;;27.00;28.80;;;;;;5097571;28;20490;-80
2021/07/22 11:56:11;;;;;;;8.93;6.80;;;27.20;28.50;;;;;;5101842;28;20936;-82
2021/07/22 11:58:40;;;;;;;9.33;6.40;;;27.30;27.30;;;;;;5101848;28;20468;-80
2021/07/22 12:01:08;;;;;;;6.87;6.27;;;27.30;28.30;;;;;;5102729;28;20498;-80
2021/07/22 12:03:35;;;;;;;8.20;6.40;;;27.10;27.90;;;;;;5102690;28;20472;-81
2021/07/22 12:06:02;;;;;;;8.97;6.47;;;27.30;28.40;;;;;;5101704;28;20439;-81
2021/07/22 12:08:29;;;;;;;7.93;6.20;;;27.30;28.60;;;;;;5101689;28;20486;-82
2021/07/22 12:11:01;;;;;;;6.70;6.10;;;27.20;28.00;;;;;;5102986;28;20502;-81
2021/07/22 12:13:28;;;;;;;7.13;6.37;;;27.30;27.70;;;;;;5102736;28;20648;-81
2021/07/22 12:15:56;;;;;;;6.80;6.10;;;27.50;27.40;;;;;;5102094;28;20492;-80
2021/07/22 12:18:24;;;;;;;9.67;6.77;;;27.40;27.60;;;;;;5101735;28;20493;-80
2021/07/22 12:20:52;;;;;;;7.50;6.40;;;27.50;28.10;;;;;;5102054;28;20475;-81
2021/07/22 12:23:33;;;;;;;7.53;6.13;;;27.70;27.60;;;;;;5101472;28;20506;-80
2021/07/22 12:26:02;;;;;;;9.30;6.30;;;27.80;27.20;;;;;;5102946;28;20451;-80
2021/07/22 12:28:30;;;;;;;8.33;6.40;;;28.00;26.10;;;;;;5102170;28;20410;-82
2021/07/22 12:31:15;;;;;;;9.37;6.17;;;27.60;27.50;;;;;;5101219;28;20479;-81
2021/07/22 12:33:42;;;;;;;6.97;6.27;;;27.60;27.80;;;;;;5102857;28;20450;-81
2021/07/22 12:36:24;;;;;;;9.83;6.23;;;27.50;27.30;;;;;;5104372;28;20506;-81
2021/07/22 12:39:10;;;;;;;7.77;6.97;;;27.50;27.90;;;;;;5103724;28;20511;-82
2021/07/22 12:41:38;;;;;;;7.43;6.00;;;27.30;27.50;;;;;;5103998;28;20991;-82
2021/07/22 12:44:06;;;;;;;6.50;5.67;;;27.60;26.90;;;;;;5114278;28;20424;-83
2021/07/22 12:46:35;;;;;;;7.73;6.20;;;27.50;27.70;;;;;;5114543;28;20454;-82
2021/07/22 12:49:02;;;;;;;6.63;6.03;;;27.70;26.60;;;;;;5116414;28;20443;-81
2021/07/22 12:51:29;;;;;;;6.93;6.20;;;27.60;26.30;;;;;;5112348;28;20467;-80